Time;durP1;ratioP1;P1;durP2;ratioP2;P2;SDS_P1;SDS_P2;PMS_P1;PMS_P2;Temp;Humidity;BMP_temperature;BMP_pressure;BME280_temperature;BME280_humidity;BME280_pressure;Samples;Min_cycle;Max_cycle;Signal;HPM_P1;HPM_P2
2022/09/19 00:02:34;;;;;;;1.40;1.20;;;;;;;;;;10510717;28;20060;-76
2022/09/19 00:13:06;;;;;;;1.65;1.00;;;;;;;;;;10503983;28;20067;-77
2022/09/19 00:18:14;;;;;;;1.30;0.77;;;;;;;;;;10510240;28;20048;-76
2022/09/19 00:28:45;;;;;;;4.82;0.95;;;;;;;;;;10507740;28;20040;-75
2022/09/19 00:33:50;;;;;;;1.92;1.10;;;;;;;;;;10509641;28;20044;-76
2022/09/19 00:38:59;;;;;;;0.70;0.70;;;;;;;;;;10499190;28;20036;-76
2022/09/19 00:44:30;;;;;;;1.65;1.02;;;;;;;;;;10502010;28;20437;-75
2022/09/19 00:49:37;;;;;;;2.63;1.30;;;;;;;;;;10503387;28;20049;-77
2022/09/19 01:00:34;;;;;;;0.82;0.77;;;;;;;;;;10504839;28;20097;-76
2022/09/19 01:05:46;;;;;;;1.50;0.70;;;;;;;;;;10518965;28;20036;-75
2022/09/19 01:10:59;;;;;;;1.02;0.80;;;;;;;;;;10516931;28;20459;-76
2022/09/19 01:16:07;;;;;;;2.15;1.00;;;;;;;;;;10486808;28;20147;-76
2022/09/19 01:26:58;;;;;;;0.68;0.68;;;;;;;;;;10518877;28;20489;-76
2022/09/19 01:32:18;;;;;;;0.63;0.22;;;;;;;;;;10514449;28;20055;-76
2022/09/19 01:37:31;;;;;;;0.30;0.17;;;;;;;;;;10511076;28;20040;-75
2022/09/19 01:42:55;;;;;;;0.77;0.45;;;;;;;;;;10499931;28;20298;-77
2022/09/19 01:48:09;;;;;;;0.52;0.50;;;;;;;;;;10509564;28;20043;-75
2022/09/19 01:53:20;;;;;;;1.27;0.20;;;;;;;;;;10530369;28;20066;-75
2022/09/19 01:58:41;;;;;;;0.43;0.10;;;;;;;;;;10525386;28;20043;-76
2022/09/19 02:03:54;;;;;;;0.20;0.20;;;;;;;;;;10497002;28;20038;-77
2022/09/19 02:09:17;;;;;;;0.20;0.10;;;;;;;;;;10513680;28;20535;-76
2022/09/19 02:14:24;;;;;;;0.10;0.10;;;;;;;;;;10512518;28;20044;-77
2022/09/19 02:19:32;;;;;;;0.00;0.00;;;;;;;;;;10524062;28;20059;-77
2022/09/19 02:24:40;;;;;;;0.10;0.10;;;;;;;;;;10501386;28;20052;-76
2022/09/19 02:29:52;;;;;;;0.43;0.28;;;;;;;;;;10491528;28;20117;-76
2022/09/19 02:35:01;;;;;;;0.35;0.30;;;;;;;;;;10498022;28;20040;-75
2022/09/19 02:40:09;;;;;;;0.50;0.40;;;;;;;;;;10488417;28;20040;-76
2022/09/19 02:45:22;;;;;;;0.30;0.30;;;;;;;;;;10490423;28;20109;-75
2022/09/19 02:50:32;;;;;;;0.40;0.40;;;;;;;;;;10505219;28;20075;-76
2022/09/19 02:55:47;;;;;;;0.32;0.30;;;;;;;;;;10487412;28;20052;-74
2022/09/19 03:00:57;;;;;;;0.50;0.50;;;;;;;;;;10504837;28;20094;-76
2022/09/19 03:06:07;;;;;;;0.38;0.35;;;;;;;;;;10513090;28;20537;-75
2022/09/19 03:11:17;;;;;;;1.10;0.57;;;;;;;;;;10514804;28;20354;-77
2022/09/19 03:16:34;;;;;;;2.45;0.82;;;;;;;;;;10497360;28;20039;-77
2022/09/19 03:21:43;;;;;;;0.63;0.60;;;;;;;;;;10491416;28;20211;-75
2022/09/19 03:26:47;;;;;;;0.32;0.28;;;;;;;;;;10488782;28;20067;-75
2022/09/19 03:31:53;;;;;;;0.75;0.63;;;;;;;;;;10509002;28;20346;-76
2022/09/19 03:37:05;;;;;;;1.17;0.57;;;;;;;;;;10489990;28;20163;-76
2022/09/19 03:42:08;;;;;;;1.23;0.45;;;;;;;;;;10459567;28;20054;-76
2022/09/19 03:47:15;;;;;;;0.70;0.57;;;;;;;;;;10504246;28;20136;-75
2022/09/19 03:52:33;;;;;;;0.73;0.60;;;;;;;;;;10509571;28;20075;-75
2022/09/19 03:57:40;;;;;;;0.50;0.50;;;;;;;;;;10508358;28;20138;-75
2022/09/19 04:02:45;;;;;;;0.57;0.40;;;;;;;;;;10522896;28;20039;-75
2022/09/19 04:07:54;;;;;;;0.30;0.30;;;;;;;;;;10498345;28;20127;-75
2022/09/19 04:13:03;;;;;;;2.83;0.50;;;;;;;;;;10491188;28;20181;-76
2022/09/19 04:18:08;;;;;;;0.85;0.43;;;;;;;;;;10550824;28;20036;-75
2022/09/19 04:23:23;;;;;;;1.10;0.65;;;;;;;;;;10558275;28;20047;-74
2022/09/19 04:28:32;;;;;;;1.35;1.10;;;;;;;;;;10563638;28;20045;-76
2022/09/19 04:33:39;;;;;;;2.20;0.45;;;;;;;;;;10552422;28;20049;-75
2022/09/19 04:38:53;;;;;;;6.13;0.47;;;;;;;;;;10556219;28;20032;-77
2022/09/19 04:44:00;;;;;;;2.15;0.63;;;;;;;;;;10554118;28;20056;-75
2022/09/19 04:49:04;;;;;;;1.00;0.50;;;;;;;;;;10531480;28;20044;-74
2022/09/19 04:54:14;;;;;;;1.00;0.50;;;;;;;;;;10501441;28;20044;-76
2022/09/19 04:59:18;;;;;;;1.17;0.43;;;;;;;;;;10541062;28;20032;-75
2022/09/19 05:04:24;;;;;;;1.60;0.68;;;;;;;;;;10516555;28;20048;-76
2022/09/19 05:09:32;;;;;;;1.13;0.43;;;;;;;;;;10525568;28;20541;-76
2022/09/19 05:19:55;;;;;;;1.00;0.47;;;;;;;;;;10521170;28;20079;-77
2022/09/19 05:25:04;;;;;;;3.15;0.50;;;;;;;;;;10505106;28;20052;-76
2022/09/19 05:30:15;;;;;;;0.70;0.50;;;;;;;;;;10521207;28;20137;-76
2022/09/19 05:35:34;;;;;;;7.32;1.05;;;;;;;;;;10520232;28;20089;-76
2022/09/19 05:40:43;;;;;;;0.63;0.35;;;;;;;;;;10497930;28;20106;-77
2022/09/19 05:45:53;;;;;;;2.05;0.90;;;;;;;;;;10495648;28;20040;-77
2022/09/19 05:51:02;;;;;;;5.70;0.40;;;;;;;;;;10494074;28;20481;-75
2022/09/19 05:56:12;;;;;;;1.45;0.55;;;;;;;;;;10501706;28;20143;-74
2022/09/19 06:01:16;;;;;;;3.80;0.70;;;;;;;;;;10515825;28;20040;-76
2022/09/19 06:06:22;;;;;;;2.47;0.55;;;;;;;;;;10489143;28;20108;-76
2022/09/19 06:11:30;;;;;;;1.80;0.77;;;;;;;;;;10517803;28;20400;-78
2022/09/19 06:16:36;;;;;;;6.30;0.77;;;;;;;;;;10502047;28;20442;-77
2022/09/19 06:21:45;;;;;;;2.00;0.77;;;;;;;;;;10508843;28;20434;-76
2022/09/19 06:26:59;;;;;;;3.40;0.52;;;;;;;;;;10497506;28;20063;-77
2022/09/19 06:32:03;;;;;;;3.80;0.73;;;;;;;;;;10480218;28;20045;-77
2022/09/19 06:37:11;;;;;;;1.13;0.43;;;;;;;;;;10523903;28;20509;-76
2022/09/19 06:42:20;;;;;;;1.45;0.45;;;;;;;;;;10507852;28;20374;-76
2022/09/19 06:47:27;;;;;;;2.03;0.63;;;;;;;;;;10511567;28;20079;-76
2022/09/19 06:52:32;;;;;;;2.28;0.70;;;;;;;;;;10513215;28;20040;-76
2022/09/19 06:57:36;;;;;;;;;;;;;;;;;;10515738;28;20047;-75
2022/09/19 07:02:59;;;;;;;3.22;0.90;;;;;;;;;;10507681;28;19924;-77
2022/09/19 07:08:08;;;;;;;2.65;0.88;;;;;;;;;;10484467;28;20139;-80
2022/09/19 07:13:16;;;;;;;6.10;0.77;;;;;;;;;;10510336;28;20122;-77
2022/09/19 07:18:23;;;;;;;3.08;0.60;;;;;;;;;;10504648;28;20051;-77
2022/09/19 07:23:28;;;;;;;3.70;0.60;;;;;;;;;;10474977;28;20052;-75
2022/09/19 07:28:35;;;;;;;3.40;0.85;;;;;;;;;;10511673;28;20040;-75
2022/09/19 07:33:48;;;;;;;5.78;0.75;;;;;;;;;;10520578;28;20392;-76
2022/09/19 07:38:54;;;;;;;3.63;0.98;;;;;;;;;;10509959;28;20036;-76
2022/09/19 07:44:05;;;;;;;1.20;0.50;;;;;;;;;;10488293;28;20054;-75
2022/09/19 07:49:12;;;;;;;4.88;1.25;;;;;;;;;;10483634;28;20373;-76
2022/09/19 07:54:20;;;;;;;5.10;0.88;;;;;;;;;;10506651;28;20036;-77
2022/09/19 07:59:30;;;;;;;3.35;1.00;;;;;;;;;;10491905;28;20463;-77
2022/09/19 08:04:37;;;;;;;2.03;0.75;;;;;;;;;;10506780;28;20413;-76
2022/09/19 08:09:41;;;;;;;4.38;0.90;;;;;;;;;;10502988;28;20040;-77
2022/09/19 08:14:51;;;;;;;2.95;1.10;;;;;;;;;;10477070;28;20059;-75
2022/09/19 08:20:02;;;;;;;1.02;0.60;;;;;;;;;;10503070;28;20055;-77
2022/09/19 08:25:09;;;;;;;2.75;0.77;;;;;;;;;;10509054;28;20257;-76
2022/09/19 08:30:16;;;;;;;2.33;0.90;;;;;;;;;;10510438;28;20480;-77
2022/09/19 08:35:21;;;;;;;3.28;0.77;;;;;;;;;;10483450;28;20055;-77
2022/09/19 08:40:28;;;;;;;2.72;0.82;;;;;;;;;;10478166;28;20049;-76
2022/09/19 08:46:10;;;;;;;1.38;0.70;;;;;;;;;;10505431;28;20053;-76
2022/09/19 08:51:19;;;;;;;4.03;0.82;;;;;;;;;;10393743;28;20147;-78
2022/09/19 08:56:26;;;;;;;7.97;0.98;;;;;;;;;;10508318;28;20154;-78
2022/09/19 09:01:34;;;;;;;0.93;0.50;;;;;;;;;;10514162;28;20036;-78
2022/09/19 09:06:46;;;;;;;4.03;1.08;;;;;;;;;;10497874;28;20046;-77
2022/09/19 09:11:56;;;;;;;3.47;0.80;;;;;;;;;;10494193;28;20405;-77
2022/09/19 09:17:10;;;;;;;4.55;1.17;;;;;;;;;;10529756;28;20075;-77
2022/09/19 09:22:24;;;;;;;3.30;0.90;;;;;;;;;;10498819;28;20131;-75
2022/09/19 09:27:36;;;;;;;4.50;0.80;;;;;;;;;;10510703;28;20044;-75
2022/09/19 09:32:47;;;;;;;2.78;1.17;;;;;;;;;;10503240;28;20048;-76
2022/09/19 09:38:02;;;;;;;3.83;0.90;;;;;;;;;;10499236;28;20076;-77
2022/09/19 09:43:20;;;;;;;1.33;0.85;;;;;;;;;;10518990;28;20038;-75
2022/09/19 09:48:46;;;;;;;1.10;0.68;;;;;;;;;;10511968;28;20052;-76
2022/09/19 09:53:59;;;;;;;1.90;0.88;;;;;;;;;;10516948;28;20053;-77
2022/09/19 10:03:33;;;;;;;2.33;1.03;;;;;;;;;;10495504;28;20050;-77
2022/09/19 10:04:38;;;;;;;4.25;0.98;;;;;;;;;;10489194;28;20147;-77
2022/09/19 10:09:54;;;;;;;6.22;1.20;;;;;;;;;;10503771;28;20032;-76
2022/09/19 10:15:05;;;;;;;1.80;0.90;;;;;;;;;;10503615;28;20055;-75
2022/09/19 10:20:18;;;;;;;3.20;1.02;;;;;;;;;;10494232;28;20073;-77
2022/09/19 10:25:31;;;;;;;2.03;0.73;;;;;;;;;;10515222;28;20116;-78
2022/09/19 10:30:43;;;;;;;4.20;0.80;;;;;;;;;;10500304;28;20467;-75
2022/09/19 10:36:05;;;;;;;1.90;0.68;;;;;;;;;;10520203;28;20527;-77
2022/09/19 10:41:14;;;;;;;3.10;0.93;;;;;;;;;;10503255;28;20071;-78
2022/09/19 10:46:41;;;;;;;1.38;0.90;;;;;;;;;;10507865;28;20043;-77
2022/09/19 10:51:48;;;;;;;2.38;0.77;;;;;;;;;;10503985;28;20033;-76
2022/09/19 10:56:59;;;;;;;3.60;1.27;;;;;;;;;;10518495;28;20051;-77
2022/09/19 11:02:21;;;;;;;4.38;1.10;;;;;;;;;;10517385;28;20056;-77
2022/09/19 11:07:30;;;;;;;3.50;1.00;;;;;;;;;;10483290;28;20067;-76
2022/09/19 11:12:41;;;;;;;3.22;0.90;;;;;;;;;;10496275;28;20024;-77
2022/09/19 11:18:01;;;;;;;3.05;1.10;;;;;;;;;;10515309;28;20035;-77
2022/09/19 11:23:19;;;;;;;4.03;1.00;;;;;;;;;;10495562;28;20138;-77
2022/09/19 11:33:57;;;;;;;6.10;1.77;;;;;;;;;;10513934;28;20045;-77
2022/09/19 11:39:27;;;;;;;2.17;1.02;;;;;;;;;;10498316;28;20075;-76
2022/09/19 11:44:59;;;;;;;5.60;1.00;;;;;;;;;;10473526;28;20039;-77
2022/09/19 11:50:21;;;;;;;3.35;1.15;;;;;;;;;;10494143;28;20058;-77
2022/09/19 11:55:33;;;;;;;4.70;1.13;;;;;;;;;;10513210;28;20039;-77
2022/09/19 12:00:57;;;;;;;2.28;0.85;;;;;;;;;;10494941;28;20115;-77
2022/09/19 12:06:14;;;;;;;3.22;1.08;;;;;;;;;;10473415;28;20047;-76
2022/09/19 12:11:27;;;;;;;3.95;1.00;;;;;;;;;;10518915;28;20501;-77
2022/09/19 12:16:39;;;;;;;2.28;1.13;;;;;;;;;;10502056;28;20488;-76
2022/09/19 12:21:54;;;;;;;1.30;0.70;;;;;;;;;;10495664;28;20076;-76
2022/09/19 12:27:12;;;;;;;2.47;1.00;;;;;;;;;;10519087;28;20575;-77
2022/09/19 12:32:20;;;;;;;4.00;1.20;;;;;;;;;;10496982;28;20088;-77
2022/09/19 12:37:35;;;;;;;2.33;0.93;;;;;;;;;;10485831;28;20603;-76
2022/09/19 12:42:49;;;;;;;4.68;1.10;;;;;;;;;;10466816;28;20036;-76
2022/09/19 12:48:05;;;;;;;3.13;0.87;;;;;;;;;;10487995;28;20101;-78
2022/09/19 12:53:31;;;;;;;4.20;0.95;;;;;;;;;;10512291;28;20040;-77
2022/09/19 12:58:43;;;;;;;5.63;1.00;;;;;;;;;;10507478;28;20056;-76
2022/09/19 13:03:51;;;;;;;1.40;0.80;;;;;;;;;;10505919;28;20040;-76
2022/09/19 13:09:03;;;;;;;2.33;1.33;;;;;;;;;;10498222;28;20051;-78
2022/09/19 13:14:14;;;;;;;2.50;0.80;;;;;;;;;;10517537;28;20035;-74
2022/09/19 13:24:58;;;;;;;3.75;0.80;;;;;;;;;;10512990;28;20045;-78
2022/09/19 13:30:05;;;;;;;2.95;0.77;;;;;;;;;;10518004;28;20123;-77
2022/09/19 13:35:22;;;;;;;3.03;0.73;;;;;;;;;;10491110;28;20064;-76
2022/09/19 13:40:57;;;;;;;1.95;0.90;;;;;;;;;;10493206;28;20539;-78
2022/09/19 13:46:10;;;;;;;1.90;0.82;;;;;;;;;;10527086;28;20522;-78
2022/09/19 13:51:33;;;;;;;2.10;0.80;;;;;;;;;;10496073;28;20130;-76
2022/09/19 13:56:40;;;;;;;1.02;0.80;;;;;;;;;;10524241;28;20047;-75
2022/09/19 14:01:56;;;;;;;2.90;0.80;;;;;;;;;;10510128;28;20044;-78
2022/09/19 14:07:17;;;;;;;0.70;0.47;;;;;;;;;;10492815;28;20056;-77
2022/09/19 14:12:56;;;;;;;2.42;1.00;;;;;;;;;;10505506;28;20044;-77
2022/09/19 14:18:05;;;;;;;2.50;0.90;;;;;;;;;;10498939;28;20048;-77
2022/09/19 14:23:16;;;;;;;5.95;1.63;;;;;;;;;;10508078;28;20039;-77
2022/09/19 14:28:38;;;;;;;1.77;0.77;;;;;;;;;;10503835;28;20135;-79
2022/09/19 14:33:59;;;;;;;1.53;0.70;;;;;;;;;;10513172;28;20035;-77
2022/09/19 14:39:20;;;;;;;16.05;1.25;;;;;;;;;;10497549;28;20142;-77
2022/09/19 14:44:34;;;;;;;2.13;0.98;;;;;;;;;;10484844;28;20480;-77
2022/09/19 14:49:38;;;;;;;3.08;0.80;;;;;;;;;;10532235;28;20047;-79
2022/09/19 14:54:43;;;;;;;1.55;0.55;;;;;;;;;;10498427;28;20105;-78
2022/09/19 15:00:00;;;;;;;4.13;0.80;;;;;;;;;;10514465;28;20404;-77
2022/09/19 15:05:15;;;;;;;2.95;0.70;;;;;;;;;;10504543;28;20371;-78
2022/09/19 15:10:48;;;;;;;1.50;0.87;;;;;;;;;;10505876;28;20048;-78
2022/09/19 15:16:08;;;;;;;1.00;0.65;;;;;;;;;;10495474;28;20409;-79
2022/09/19 15:21:17;;;;;;;0.60;0.60;;;;;;;;;;10500347;28;20036;-79
2022/09/19 15:26:25;;;;;;;0.68;0.52;;;;;;;;;;10484771;28;20047;-79
2022/09/19 15:31:45;;;;;;;2.90;0.73;;;;;;;;;;10490297;28;20040;-78
2022/09/19 15:36:55;;;;;;;0.90;0.50;;;;;;;;;;10508460;28;20507;-78
2022/09/19 15:42:03;;;;;;;0.93;0.70;;;;;;;;;;10494195;28;20044;-78
2022/09/19 15:47:12;;;;;;;1.10;0.43;;;;;;;;;;10492181;28;20060;-78
2022/09/19 15:52:17;;;;;;;3.80;0.75;;;;;;;;;;10494151;28;20079;-76
2022/09/19 15:57:31;;;;;;;1.52;0.73;;;;;;;;;;10512435;28;20515;-78
2022/09/19 16:02:36;;;;;;;;;;;;;;;;;;10529634;28;20106;-75
2022/09/19 16:13:38;;;;;;;1.13;0.82;;;;;;;;;;10529676;28;20043;-76
2022/09/19 16:18:50;;;;;;;6.05;1.13;;;;;;;;;;10533671;28;20040;-77
2022/09/19 16:23:59;;;;;;;1.83;0.90;;;;;;;;;;10507655;28;21049;-78
2022/09/19 16:29:06;;;;;;;0.68;0.60;;;;;;;;;;10495719;28;20098;-79
2022/09/19 16:34:20;;;;;;;1.48;0.80;;;;;;;;;;10520607;28;20048;-77
2022/09/19 16:39:29;;;;;;;2.20;0.73;;;;;;;;;;10513542;28;20434;-78
2022/09/19 16:44:39;;;;;;;1.35;0.90;;;;;;;;;;10511668;28;20047;-79
2022/09/19 16:49:43;;;;;;;3.22;0.60;;;;;;;;;;10494251;28;20070;-77
2022/09/19 16:54:55;;;;;;;3.10;0.80;;;;;;;;;;10523857;28;20040;-77
2022/09/19 16:59:58;;;;;;;1.52;1.00;;;;;;;;;;10548971;28;20119;-77
2022/09/19 17:05:13;;;;;;;2.90;0.90;;;;;;;;;;10509370;28;20040;-79
2022/09/19 17:10:27;;;;;;;0.77;0.50;;;;;;;;;;10494464;28;20051;-80
2022/09/19 17:15:39;;;;;;;5.13;1.42;;;;;;;;;;10518169;28;20079;-78
2022/09/19 17:20:45;;;;;;;2.92;1.00;;;;;;;;;;10520955;28;20556;-79
2022/09/19 17:25:54;;;;;;;2.15;0.90;;;;;;;;;;10522634;28;20048;-78
2022/09/19 17:31:03;;;;;;;2.38;1.00;;;;;;;;;;10525371;28;20139;-79
2022/09/19 17:36:11;;;;;;;1.73;1.10;;;;;;;;;;10526722;28;20036;-78
2022/09/19 17:41:21;;;;;;;1.38;1.10;;;;;;;;;;10523716;28;20409;-80
2022/09/19 17:46:47;;;;;;;1.23;0.77;;;;;;;;;;10526092;28;20118;-79
2022/09/19 17:52:09;;;;;;;1.58;1.05;;;;;;;;;;10504886;28;20405;-80
2022/09/19 17:57:23;;;;;;;2.42;1.17;;;;;;;;;;10514951;28;20083;-80
2022/09/19 18:07:57;;;;;;;1.60;1.23;;;;;;;;;;10515902;28;20047;-78
2022/09/19 18:13:16;;;;;;;5.03;2.40;;;;;;;;;;10494899;28;20284;-79
2022/09/19 18:18:27;;;;;;;3.70;1.55;;;;;;;;;;10504958;28;20044;-79
2022/09/19 18:23:35;;;;;;;2.35;1.30;;;;;;;;;;10484462;28;20440;-78
2022/09/19 18:28:44;;;;;;;3.08;0.90;;;;;;;;;;10519059;28;20058;-79
2022/09/19 18:33:48;;;;;;;3.33;1.40;;;;;;;;;;10503668;28;20067;-78
2022/09/19 18:38:54;;;;;;;4.63;1.58;;;;;;;;;;10524015;28;20127;-78
2022/09/19 18:44:03;;;;;;;4.25;1.40;;;;;;;;;;10511651;28;20044;-78
2022/09/19 18:49:08;;;;;;;1.65;1.10;;;;;;;;;;10516372;28;20060;-79
2022/09/19 18:54:17;;;;;;;3.85;1.30;;;;;;;;;;10514062;28;20167;-78
2022/09/19 18:59:31;;;;;;;7.60;1.58;;;;;;;;;;10520077;28;20085;-78
2022/09/19 19:04:35;;;;;;;4.35;1.90;;;;;;;;;;10494589;28;20059;-79
2022/09/19 19:15:17;;;;;;;2.75;1.50;;;;;;;;;;10511702;28;20041;-79
2022/09/19 19:20:22;;;;;;;2.00;1.52;;;;;;;;;;10517794;28;20121;-79
2022/09/19 19:25:28;;;;;;;2.13;1.17;;;;;;;;;;10501802;28;20062;-78
2022/09/19 19:30:50;;;;;;;1.85;1.13;;;;;;;;;;10503496;28;20098;-78
2022/09/19 19:36:00;;;;;;;2.55;1.10;;;;;;;;;;10499439;28;20033;-78
2022/09/19 19:41:06;;;;;;;3.15;1.27;;;;;;;;;;10472393;28;20044;-77
2022/09/19 19:46:14;;;;;;;2.20;1.35;;;;;;;;;;10500427;28;20048;-78
2022/09/19 19:51:20;;;;;;;4.95;1.65;;;;;;;;;;10490777;28;20067;-80
2022/09/19 19:56:31;;;;;;;2.47;1.50;;;;;;;;;;10500393;28;20050;-78
2022/09/19 20:01:42;;;;;;;4.45;1.75;;;;;;;;;;10511138;28;20052;-79
2022/09/19 20:06:54;;;;;;;1.70;1.20;;;;;;;;;;10522275;28;20396;-78
2022/09/19 20:12:04;;;;;;;2.33;0.73;;;;;;;;;;10510878;28;20449;-79
2022/09/19 20:17:15;;;;;;;2.10;1.10;;;;;;;;;;10513317;28;20090;-78
2022/09/19 20:22:23;;;;;;;2.22;1.25;;;;;;;;;;10513542;28;20041;-80
2022/09/19 20:27:34;;;;;;;3.35;1.40;;;;;;;;;;10518570;28;20036;-78
2022/09/19 20:32:41;;;;;;;2.72;1.23;;;;;;;;;;10504948;28;20505;-80
2022/09/19 20:37:50;;;;;;;3.08;1.10;;;;;;;;;;10504372;28;20359;-79
2022/09/19 20:42:56;;;;;;;2.72;1.42;;;;;;;;;;10505743;28;20056;-80
2022/09/19 20:48:05;;;;;;;2.28;0.95;;;;;;;;;;10489599;28;20590;-79
2022/09/19 20:53:13;;;;;;;2.60;1.00;;;;;;;;;;10510726;28;20047;-77
2022/09/19 21:03:43;;;;;;;4.30;1.20;;;;;;;;;;10516249;28;20044;-77
2022/09/19 21:08:54;;;;;;;2.15;1.20;;;;;;;;;;10501424;28;20036;-78
2022/09/19 21:14:05;;;;;;;2.20;1.20;;;;;;;;;;10500709;28;20040;-77
2022/09/19 21:19:13;;;;;;;1.60;0.98;;;;;;;;;;10492670;28;20079;-77
2022/09/19 21:24:19;;;;;;;2.15;0.90;;;;;;;;;;10504059;28;20142;-78
2022/09/19 21:29:22;;;;;;;1.30;0.38;;;;;;;;;;10529093;28;20589;-77
2022/09/19 21:34:29;;;;;;;1.25;0.90;;;;;;;;;;10502380;28;20040;-77
2022/09/19 21:39:34;;;;;;;1.15;0.80;;;;;;;;;;10502243;28;20043;-76
2022/09/19 21:44:39;;;;;;;1.55;0.90;;;;;;;;;;10510768;28;20115;-78
2022/09/19 21:49:47;;;;;;;1.75;1.00;;;;;;;;;;10518889;28;20059;-77
2022/09/19 21:54:52;;;;;;;0.85;0.55;;;;;;;;;;10492676;28;20043;-77
2022/09/19 22:00:06;;;;;;;1.60;0.70;;;;;;;;;;10506457;28;20472;-77
2022/09/19 22:05:11;;;;;;;1.98;1.23;;;;;;;;;;10513691;28;20087;-78
2022/09/19 22:10:20;;;;;;;0.77;0.43;;;;;;;;;;10513762;28;20534;-78
2022/09/19 22:15:36;;;;;;;1.63;0.70;;;;;;;;;;10519411;28;20119;-77
2022/09/19 22:20:49;;;;;;;0.88;0.52;;;;;;;;;;10471662;28;20762;-77
2022/09/19 22:25:58;;;;;;;3.72;1.13;;;;;;;;;;10509983;28;20135;-78
2022/09/19 22:31:08;;;;;;;1.90;0.70;;;;;;;;;;10523156;28;20054;-77
2022/09/19 22:36:19;;;;;;;1.65;0.75;;;;;;;;;;10497119;28;20040;-77
2022/09/19 22:41:33;;;;;;;1.10;0.65;;;;;;;;;;10516958;28;20492;-77
2022/09/19 22:46:39;;;;;;;;;;;;;;;;;;10502186;28;20047;-77
2022/09/19 22:51:49;;;;;;;1.05;0.68;;;;;;;;;;10509348;28;20343;-78
2022/09/19 22:56:55;;;;;;;1.15;0.93;;;;;;;;;;10515587;28;20035;-76
2022/09/19 23:02:02;;;;;;;1.55;0.80;;;;;;;;;;10523617;28;20146;-76
2022/09/19 23:12:42;;;;;;;1.52;0.52;;;;;;;;;;10520235;28;20028;-75
2022/09/19 23:17:49;;;;;;;0.73;0.70;;;;;;;;;;10512137;28;20048;-76
2022/09/19 23:22:59;;;;;;;1.13;0.68;;;;;;;;;;10498028;28;20048;-77
2022/09/19 23:28:05;;;;;;;1.95;0.80;;;;;;;;;;10498158;28;20508;-76
2022/09/19 23:33:18;;;;;;;0.65;0.60;;;;;;;;;;10517409;28;20072;-76
2022/09/19 23:38:29;;;;;;;2.75;0.80;;;;;;;;;;10517522;28;20697;-75
2022/09/19 23:43:34;;;;;;;1.50;0.52;;;;;;;;;;10515378;28;20499;-76
2022/09/19 23:48:40;;;;;;;1.08;0.80;;;;;;;;;;10478716;28;20118;-78
2022/09/19 23:53:50;;;;;;;2.55;0.88;;;;;;;;;;10520040;28;20043;-78
2022/09/19 23:59:02;;;;;;;2.13;0.63;;;;;;;;;;10516229;28;20113;-77
